Time;durP1;ratioP1;P1;durP2;ratioP2;P2;SDS_P1;SDS_P2;PMS_P1;PMS_P2;Temp;Humidity;BMP_temperature;BMP_pressure;BME280_temperature;BME280_humidity;BME280_pressure;Samples;Min_cycle;Max_cycle;Signal;HPM_P1;HPM_P2
2023/11/30 00:01:18;;;;;;;26.63;18.63;;;2.40;1.00;;;;;;5007529;28;20187;-87
2023/11/30 00:03:44;;;;;;;26.10;16.67;;;2.40;1.00;;;;;;5021897;28;20218;-87
2023/11/30 00:06:10;;;;;;;27.27;19.40;;;2.50;1.00;;;;;;5013578;28;20190;-86
2023/11/30 00:08:35;;;;;;;29.53;18.53;;;2.50;1.00;;;;;;5013015;28;20200;-87
2023/11/30 00:11:05;;;;;;;22.57;17.27;;;2.50;1.00;;;;;;5011583;28;20233;-86
2023/11/30 00:13:30;;;;;;;27.77;19.73;;;2.50;1.00;;;;;;5009555;28;20203;-86
2023/11/30 00:15:56;;;;;;;27.03;20.23;;;2.50;1.00;;;;;;5002302;28;20250;-86
2023/11/30 00:18:21;;;;;;;25.20;18.63;;;2.50;1.00;;;;;;5007859;28;20234;-87
2023/11/30 00:20:47;;;;;;;25.30;17.47;;;2.60;1.00;;;;;;5016757;28;20202;-88
2023/11/30 00:23:12;;;;;;;27.03;18.80;;;2.60;1.00;;;;;;5016358;28;20318;-87
2023/11/30 00:25:38;;;;;;;24.97;18.13;;;2.60;1.00;;;;;;5009583;28;20261;-87
2023/11/30 00:28:04;;;;;;;31.40;17.67;;;2.70;1.00;;;;;;5009746;28;20222;-86
2023/11/30 00:30:29;;;;;;;35.00;19.10;;;2.70;1.00;;;;;;5009325;28;20689;-87
2023/11/30 00:32:55;;;;;;;37.43;20.67;;;2.70;1.00;;;;;;5015800;28;20453;-85
2023/11/30 00:35:20;;;;;;;35.73;19.27;;;2.80;1.00;;;;;;5015469;28;20246;-87
2023/11/30 00:37:46;;;;;;;35.13;20.77;;;2.80;1.00;;;;;;5020530;28;20203;-87
2023/11/30 00:40:11;;;;;;;34.03;18.23;;;2.80;1.00;;;;;;5020025;28;20929;-86
2023/11/30 00:42:37;;;;;;;31.00;18.17;;;2.80;1.00;;;;;;5018684;28;20216;-86
2023/11/30 00:45:03;;;;;;;28.20;18.33;;;2.90;1.00;;;;;;5018975;28;20232;-87
2023/11/30 00:47:29;;;;;;;27.55;16.30;;;2.90;1.00;;;;;;5019020;28;20195;-86
2023/11/30 00:49:54;;;;;;;31.00;15.60;;;2.90;1.00;;;;;;5005824;28;20680;-86
2023/11/30 00:52:20;;;;;;;27.77;19.60;;;2.80;1.00;;;;;;5008338;28;20186;-87
2023/11/30 00:54:45;;;;;;;27.00;17.10;;;2.80;1.00;;;;;;5021532;28;20194;-87
2023/11/30 00:57:11;;;;;;;25.13;17.03;;;2.80;1.00;;;;;;5020419;28;20576;-87
2023/11/30 00:59:36;;;;;;;27.70;19.47;;;2.80;1.00;;;;;;5011602;28;20198;-88
2023/11/30 01:02:02;;;;;;;31.83;19.50;;;2.70;1.00;;;;;;5016875;28;20212;-87
2023/11/30 01:04:27;;;;;;;25.20;18.67;;;2.60;1.00;;;;;;5020492;28;20183;-87
2023/11/30 01:06:53;;;;;;;25.93;17.23;;;2.60;1.00;;;;;;5016821;28;20249;-87
2023/11/30 01:09:18;;;;;;;32.17;19.83;;;2.60;1.00;;;;;;5016204;28;20275;-86
2023/11/30 01:11:44;;;;;;;23.37;16.10;;;2.60;1.00;;;;;;5024278;28;20258;-86
2023/11/30 01:14:09;;;;;;;26.40;18.23;;;2.60;1.00;;;;;;5019289;28;20183;-87
2023/11/30 01:16:35;;;;;;;27.13;17.70;;;2.60;1.00;;;;;;5018006;28;20190;-86
2023/11/30 01:19:01;;;;;;;29.80;18.57;;;2.60;1.00;;;;;;5014895;28;20187;-85
2023/11/30 01:21:26;;;;;;;31.90;19.03;;;2.70;1.00;;;;;;5019166;28;20189;-88
2023/11/30 01:23:51;;;;;;;22.77;15.90;;;2.60;1.00;;;;;;5015299;28;20199;-87
2023/11/30 01:26:17;;;;;;;27.77;16.90;;;2.60;1.00;;;;;;5021776;28;20179;-87
2023/11/30 01:28:43;;;;;;;26.63;19.13;;;2.60;1.00;;;;;;5020510;28;20673;-88
2023/11/30 01:31:09;;;;;;;32.55;19.67;;;2.50;1.00;;;;;;5018879;28;21326;-87
2023/11/30 01:33:36;;;;;;;33.83;19.53;;;2.50;1.00;;;;;;5017549;28;20211;-86
2023/11/30 01:36:03;;;;;;;28.70;19.05;;;2.50;1.00;;;;;;5018776;28;20224;-87
2023/11/30 01:38:29;;;;;;;30.65;18.08;;;2.60;1.00;;;;;;5019662;28;20265;-87
2023/11/30 01:40:55;;;;;;;30.03;19.57;;;2.60;1.00;;;;;;5013041;28;20180;-87
2023/11/30 01:43:21;;;;;;;28.63;19.77;;;2.60;1.00;;;;;;5015191;28;20472;-86
2023/11/30 01:45:51;;;;;;;28.52;19.17;;;2.50;1.00;;;;;;5016151;28;20187;-86
2023/11/30 01:48:17;;;;;;;29.52;19.50;;;2.50;1.00;;;;;;5021248;28;20203;-86
2023/11/30 01:50:44;;;;;;;29.83;19.98;;;2.50;1.00;;;;;;5015171;28;20176;-86
2023/11/30 01:53:10;;;;;;;27.70;18.90;;;2.60;1.00;;;;;;5010433;28;20918;-86
2023/11/30 01:55:36;;;;;;;31.42;20.50;;;2.60;1.00;;;;;;5018655;28;20198;-88
2023/11/30 01:58:04;;;;;;;29.77;19.23;;;2.60;1.00;;;;;;5008975;28;20242;-88
2023/11/30 02:00:30;;;;;;;28.17;18.85;;;2.60;1.00;;;;;;5019629;28;20188;-86
2023/11/30 02:02:57;;;;;;;25.15;17.50;;;2.60;1.00;;;;;;5019364;28;20198;-87
2023/11/30 02:05:23;;;;;;;27.48;18.52;;;2.60;1.00;;;;;;5014218;28;20183;-86
2023/11/30 02:07:48;;;;;;;32.90;20.13;;;2.70;1.00;;;;;;5010518;28;20215;-85
2023/11/30 02:10:14;;;;;;;27.30;18.73;;;2.80;1.00;;;;;;5014448;28;20179;-86
2023/11/30 02:12:39;;;;;;;28.20;17.33;;;2.80;1.00;;;;;;5016552;28;20194;-88
2023/11/30 02:15:05;;;;;;;29.20;17.20;;;2.90;1.00;;;;;;5015768;28;20189;-86
2023/11/30 02:17:31;;;;;;;24.13;16.20;;;2.90;1.00;;;;;;5015457;28;20230;-87
2023/11/30 02:19:56;;;;;;;25.67;16.63;;;2.80;1.00;;;;;;5015358;28;20199;-86
2023/11/30 02:22:22;;;;;;;25.03;16.70;;;2.70;1.00;;;;;;5017520;28;20236;-87
2023/11/30 02:24:47;;;;;;;23.83;15.70;;;2.60;1.00;;;;;;5019027;28;20188;-87
2023/11/30 02:27:13;;;;;;;21.73;16.40;;;2.50;1.00;;;;;;5019411;28;20211;-87
2023/11/30 02:29:39;;;;;;;22.00;14.63;;;2.40;1.00;;;;;;5015655;28;20194;-86
2023/11/30 02:32:04;;;;;;;17.70;13.70;;;2.50;1.00;;;;;;5019109;28;20199;-88
2023/11/30 02:34:30;;;;;;;17.60;13.90;;;2.50;1.00;;;;;;5018172;28;20208;-87
2023/11/30 02:36:55;;;;;;;20.40;12.07;;;2.50;1.00;;;;;;5018021;28;20211;-87
2023/11/30 02:39:21;;;;;;;19.90;13.70;;;2.50;1.00;;;;;;5018677;28;20282;-86
2023/11/30 02:41:46;;;;;;;18.10;13.50;;;2.60;1.00;;;;;;5017764;28;20182;-87
2023/11/30 02:44:12;;;;;;;17.27;13.40;;;2.60;1.00;;;;;;5018440;28;20210;-86
2023/11/30 02:46:37;;;;;;;18.63;12.67;;;2.70;1.00;;;;;;5018379;28;20191;-87
2023/11/30 02:49:03;;;;;;;16.70;12.63;;;2.70;1.00;;;;;;5018728;28;20195;-87
2023/11/30 02:51:28;;;;;;;20.37;14.67;;;2.70;1.00;;;;;;5019875;28;20222;-87
2023/11/30 02:53:54;;;;;;;26.10;13.67;;;2.70;1.00;;;;;;5020161;28;20186;-86
2023/11/30 02:56:19;;;;;;;16.60;13.13;;;2.70;1.00;;;;;;5020501;28;20191;-87
2023/11/30 02:58:45;;;;;;;19.10;13.30;;;2.60;1.00;;;;;;5018499;28;20755;-88
2023/11/30 03:01:10;;;;;;;17.50;13.23;;;2.60;1.00;;;;;;5019126;28;20179;-87
2023/11/30 03:03:36;;;;;;;19.37;13.17;;;2.70;1.00;;;;;;5014516;28;20265;-86
2023/11/30 03:06:01;;;;;;;15.53;12.63;;;2.70;1.00;;;;;;5019378;28;20201;-87
2023/11/30 03:08:27;;;;;;;19.00;12.97;;;2.70;1.00;;;;;;5018221;28;20242;-87
2023/11/30 03:10:52;;;;;;;17.70;12.47;;;2.70;1.00;;;;;;5017669;28;20219;-87
2023/11/30 03:13:18;;;;;;;22.80;14.00;;;2.70;1.00;;;;;;5019124;28;20567;-87
2023/11/30 03:15:45;;;;;;;18.10;13.40;;;2.70;1.00;;;;;;5020344;28;20195;-86
2023/11/30 03:18:11;;;;;;;20.33;14.10;;;2.70;1.00;;;;;;5018199;28;20223;-86
2023/11/30 03:20:36;;;;;;;19.17;13.50;;;2.70;1.00;;;;;;5017805;28;20187;-87
2023/11/30 03:23:02;;;;;;;20.40;14.30;;;2.60;1.00;;;;;;5014547;28;20219;-86
2023/11/30 03:25:28;;;;;;;17.50;14.00;;;2.70;1.00;;;;;;5017664;28;20219;-87
2023/11/30 03:27:54;;;;;;;17.40;13.77;;;2.70;1.00;;;;;;5017220;28;20302;-87
2023/11/30 03:30:19;;;;;;;19.07;13.47;;;2.70;1.00;;;;;;5018772;28;20183;-87
2023/11/30 03:32:44;;;;;;;19.57;13.23;;;2.70;1.00;;;;;;5018158;28;20241;-88
2023/11/30 03:35:10;;;;;;;21.70;14.23;;;2.70;1.00;;;;;;5017488;28;20624;-87
2023/11/30 03:37:40;;;;;;;21.07;15.37;;;2.70;1.00;;;;;;5013828;28;20764;-86
2023/11/30 03:40:06;;;;;;;21.65;13.80;;;2.80;1.00;;;;;;5011588;28;20253;-87
2023/11/30 03:42:32;;;;;;;21.73;14.15;;;2.80;1.00;;;;;;5016725;28;20615;-87
2023/11/30 03:44:57;;;;;;;19.13;13.67;;;2.80;1.00;;;;;;5014630;28;20189;-87
2023/11/30 03:47:23;;;;;;;23.17;13.50;;;2.80;1.00;;;;;;5013527;28;20207;-85
2023/11/30 03:49:48;;;;;;;23.90;13.40;;;2.80;1.00;;;;;;5008954;28;20179;-87
2023/11/30 03:52:14;;;;;;;25.60;13.87;;;2.80;1.00;;;;;;5012419;28;20187;-87
2023/11/30 03:54:39;;;;;;;25.13;14.57;;;2.80;1.00;;;;;;5015014;28;20183;-87
2023/11/30 03:57:05;;;;;;;27.47;14.53;;;2.70;1.00;;;;;;5015456;28;20290;-87
2023/11/30 03:59:31;;;;;;;29.03;13.83;;;2.60;1.00;;;;;;5013949;28;20546;-87
2023/11/30 04:01:56;;;;;;;33.55;14.90;;;2.60;1.00;;;;;;5013420;28;20197;-86
2023/11/30 04:04:22;;;;;;;41.87;13.50;;;2.60;1.00;;;;;;5019714;28;20286;-86
2023/11/30 04:06:47;;;;;;;30.77;14.23;;;2.60;1.00;;;;;;5014391;28;20187;-86
2023/11/30 04:09:14;;;;;;;34.33;15.43;;;2.60;1.00;;;;;;5014975;28;20207;-87
2023/11/30 04:11:39;;;;;;;28.75;14.70;;;2.60;1.00;;;;;;5015360;28;20257;-86
2023/11/30 04:14:06;;;;;;;31.73;15.80;;;2.60;1.00;;;;;;5011869;28;20789;-86
2023/11/30 04:16:34;;;;;;;31.13;15.25;;;2.50;1.00;;;;;;5015934;28;20218;-87
2023/11/30 04:19:00;;;;;;;39.33;17.92;;;2.50;1.00;;;;;;5020022;28;20190;-87
2023/11/30 04:21:25;;;;;;;42.23;16.53;;;2.60;1.00;;;;;;5011879;28;20191;-87
2023/11/30 04:23:51;;;;;;;39.73;16.00;;;2.60;1.00;;;;;;5005344;28;20474;-86
2023/11/30 04:26:16;;;;;;;25.03;14.60;;;2.50;1.00;;;;;;5013817;28;20649;-86
2023/11/30 04:28:42;;;;;;;32.27;16.00;;;2.50;1.00;;;;;;5012809;28;20211;-86
2023/11/30 04:31:08;;;;;;;24.93;14.70;;;2.50;1.00;;;;;;5017314;28;20191;-87
2023/11/30 04:33:33;;;;;;;36.67;16.93;;;2.50;1.00;;;;;;5009237;28;20262;-88
2023/11/30 04:35:59;;;;;;;24.50;15.40;;;2.60;1.00;;;;;;5019401;28;20445;-87
2023/11/30 04:38:24;;;;;;;33.07;17.53;;;2.50;1.00;;;;;;5021397;28;20688;-88
2023/11/30 04:40:50;;;;;;;31.77;16.20;;;2.50;1.00;;;;;;5016575;28;20187;-87
2023/11/30 04:43:15;;;;;;;37.53;16.07;;;2.60;1.00;;;;;;5017115;28;20211;-86
2023/11/30 04:45:41;;;;;;;26.00;14.30;;;2.60;1.00;;;;;;5016723;28;20186;-86
2023/11/30 04:48:06;;;;;;;31.23;15.30;;;2.50;1.00;;;;;;5011084;28;20203;-87
2023/11/30 04:50:32;;;;;;;21.50;14.00;;;2.50;1.00;;;;;;5015252;28;20180;-88
2023/11/30 04:52:57;;;;;;;20.50;14.40;;;2.50;1.00;;;;;;5019768;28;20237;-88
2023/11/30 04:55:23;;;;;;;25.77;13.83;;;2.50;1.00;;;;;;5015516;28;20559;-87
2023/11/30 04:57:48;;;;;;;20.57;13.27;;;2.40;1.00;;;;;;5017479;28;20203;-86
2023/11/30 05:00:15;;;;;;;29.53;15.07;;;2.50;1.00;;;;;;5009711;28;20255;-86
2023/11/30 05:02:55;;;;;;;24.30;12.98;;;2.50;1.00;;;;;;5014241;28;20211;-86
2023/11/30 05:05:21;;;;;;;22.92;14.02;;;2.40;1.00;;;;;;5016149;28;20239;-85
2023/11/30 05:07:47;;;;;;;21.70;12.98;;;2.50;1.00;;;;;;5010559;28;20237;-86
2023/11/30 05:10:12;;;;;;;22.43;13.90;;;2.50;1.00;;;;;;5020727;28;20183;-86
2023/11/30 05:12:38;;;;;;;25.93;14.80;;;2.40;1.00;;;;;;5021009;28;20497;-86
2023/11/30 05:15:05;;;;;;;24.40;14.30;;;2.40;1.00;;;;;;5012855;28;20210;-86
2023/11/30 05:17:30;;;;;;;24.40;14.85;;;2.40;1.00;;;;;;5016712;28;20223;-86
2023/11/30 05:19:57;;;;;;;26.53;14.20;;;2.40;1.00;;;;;;5007836;28;20249;-85
2023/11/30 05:22:22;;;;;;;21.10;13.45;;;2.40;1.00;;;;;;5013491;28;20207;-86
2023/11/30 05:24:50;;;;;;;28.03;14.13;;;2.40;1.00;;;;;;5019619;28;20652;-85
2023/11/30 05:27:16;;;;;;;22.35;13.48;;;2.30;1.00;;;;;;5021790;28;20613;-86
2023/11/30 05:29:41;;;;;;;22.77;14.40;;;2.40;1.00;;;;;;5019928;28;20183;-85
2023/11/30 05:32:07;;;;;;;29.23;14.60;;;2.40;1.00;;;;;;5015031;28;20438;-85
2023/11/30 05:34:35;;;;;;;24.00;15.83;;;2.40;1.00;;;;;;5017395;28;20270;-85
2023/11/30 05:37:02;;;;;;;28.80;15.40;;;2.40;1.00;;;;;;5022284;28;20592;-86
2023/11/30 05:39:28;;;;;;;31.88;16.77;;;2.40;1.00;;;;;;5023276;28;20176;-85
2023/11/30 05:41:53;;;;;;;25.13;15.90;;;2.30;1.00;;;;;;5013440;28;20269;-86
2023/11/30 05:44:19;;;;;;;24.43;17.30;;;2.30;1.00;;;;;;5031461;28;20560;-85
2023/11/30 05:46:46;;;;;;;26.67;15.57;;;2.30;1.00;;;;;;5022088;28;20191;-86
2023/11/30 05:49:12;;;;;;;28.02;18.65;;;2.30;1.00;;;;;;5005524;28;20430;-86
2023/11/30 05:51:39;;;;;;;37.10;17.87;;;2.20;1.00;;;;;;5020078;28;20578;-86
2023/11/30 05:54:05;;;;;;;25.88;15.75;;;2.20;1.00;;;;;;5021820;28;20193;-87
2023/11/30 05:56:31;;;;;;;27.87;16.83;;;2.20;1.00;;;;;;5021572;28;20218;-86
2023/11/30 05:58:56;;;;;;;32.07;18.30;;;2.20;1.00;;;;;;5013321;28;20203;-86
2023/11/30 06:01:22;;;;;;;29.63;18.17;;;2.20;1.00;;;;;;5011899;28;20180;-87
2023/11/30 06:03:47;;;;;;;34.00;18.53;;;2.20;1.00;;;;;;5018022;28;20680;-86
2023/11/30 06:06:13;;;;;;;34.97;17.13;;;2.20;1.00;;;;;;5013827;28;20656;-86
2023/11/30 06:08:39;;;;;;;49.77;16.23;;;2.30;1.00;;;;;;5010887;28;20259;-86
2023/11/30 06:11:04;;;;;;;33.50;16.73;;;2.30;1.00;;;;;;5022627;28;20183;-86
2023/11/30 06:13:30;;;;;;;38.67;16.07;;;2.30;1.00;;;;;;5019640;28;20960;-85
2023/11/30 06:15:55;;;;;;;30.90;15.73;;;2.40;1.00;;;;;;5022135;28;20207;-87
2023/11/30 06:18:21;;;;;;;34.33;18.77;;;2.40;1.00;;;;;;5026343;28;20272;-86
2023/11/30 06:20:47;;;;;;;42.73;17.43;;;2.40;1.00;;;;;;5033525;28;20626;-86
2023/11/30 06:23:12;;;;;;;52.83;22.50;;;2.40;1.00;;;;;;5022227;28;20895;-87
2023/11/30 06:25:38;;;;;;;30.70;17.80;;;2.40;1.00;;;;;;5015372;28;20187;-86
2023/11/30 06:28:04;;;;;;;36.92;18.65;;;2.40;1.00;;;;;;5020971;28;20203;-86
2023/11/30 06:30:29;;;;;;;28.20;16.07;;;2.40;1.00;;;;;;5014049;28;20829;-87
2023/11/30 06:32:55;;;;;;;34.60;15.77;;;2.40;1.00;;;;;;5017485;28;20211;-86
2023/11/30 06:35:20;;;;;;;30.83;15.00;;;2.50;1.00;;;;;;5009872;28;20195;-86
2023/11/30 06:37:46;;;;;;;26.17;15.93;;;2.40;1.00;;;;;;5010379;28;21190;-87
2023/11/30 06:40:12;;;;;;;24.30;15.07;;;2.40;1.00;;;;;;5018068;28;20183;-87
2023/11/30 06:42:37;;;;;;;21.07;13.07;;;2.40;1.00;;;;;;5017579;28;20203;-85
2023/11/30 06:45:03;;;;;;;24.87;15.03;;;2.50;1.00;;;;;;5009801;28;20438;-87
2023/11/30 06:47:29;;;;;;;29.15;14.20;;;2.50;1.00;;;;;;5018159;28;20208;-87
2023/11/30 06:49:54;;;;;;;21.03;12.90;;;2.40;1.00;;;;;;5027972;28;20194;-86
2023/11/30 06:52:20;;;;;;;19.73;13.20;;;2.50;1.00;;;;;;5020289;28;20186;-87
2023/11/30 06:54:45;;;;;;;20.37;13.50;;;2.50;1.00;;;;;;5019250;28;20548;-86
2023/11/30 06:57:11;;;;;;;19.80;13.03;;;2.50;1.00;;;;;;5019808;28;20269;-86
2023/11/30 06:59:37;;;;;;;18.80;13.70;;;2.50;1.00;;;;;;5017445;28;20187;-86
2023/11/30 07:02:02;;;;;;;22.10;12.93;;;2.50;1.00;;;;;;5013633;28;20194;-86
2023/11/30 07:04:28;;;;;;;19.50;13.00;;;2.50;1.00;;;;;;5013181;28;20188;-86
2023/11/30 07:06:54;;;;;;;28.30;13.27;;;2.50;1.00;;;;;;5017683;28;20290;-86
2023/11/30 07:09:20;;;;;;;20.05;14.13;;;2.60;1.00;;;;;;5020238;28;20184;-87
2023/11/30 07:11:45;;;;;;;23.80;14.40;;;2.60;1.00;;;;;;5010439;28;20541;-87
2023/11/30 07:14:11;;;;;;;20.03;12.63;;;2.70;1.00;;;;;;5018681;28;20550;-87
2023/11/30 07:16:36;;;;;;;20.17;12.60;;;2.70;1.00;;;;;;5019369;28;20255;-87
2023/11/30 07:19:02;;;;;;;25.90;15.27;;;2.80;1.00;;;;;;5015491;28;20226;-87
2023/11/30 07:21:28;;;;;;;21.23;14.00;;;2.80;1.00;;;;;;5013852;28;20183;-87
2023/11/30 07:23:56;;;;;;;21.37;12.87;;;2.90;1.00;;;;;;5005792;28;20235;-87
2023/11/30 07:26:21;;;;;;;19.77;13.60;;;2.90;1.00;;;;;;5009041;28;20183;-87
2023/11/30 07:28:47;;;;;;;21.33;13.97;;;2.90;1.00;;;;;;5013021;28;20208;-88
2023/11/30 07:31:20;;;;;;;21.53;14.10;;;2.90;1.00;;;;;;5011669;28;20191;-86
2023/11/30 07:33:46;;;;;;;21.90;12.90;;;2.90;1.00;;;;;;5011879;28;20191;-87
2023/11/30 07:36:12;;;;;;;20.50;13.25;;;2.90;1.00;;;;;;5009089;28;20179;-87
2023/11/30 07:38:37;;;;;;;23.10;15.37;;;3.00;1.00;;;;;;5013069;28;20564;-87
2023/11/30 07:41:04;;;;;;;21.30;13.50;;;3.00;1.00;;;;;;5013088;28;20183;-88
2023/11/30 07:43:31;;;;;;;25.58;14.38;;;3.10;1.00;;;;;;5020076;28;20302;-88
2023/11/30 07:45:57;;;;;;;25.42;15.32;;;3.10;1.00;;;;;;5012303;28;20651;-86
2023/11/30 07:48:23;;;;;;;18.23;12.75;;;3.20;1.00;;;;;;5009923;28;20245;-87
2023/11/30 07:50:49;;;;;;;23.43;13.80;;;3.20;1.00;;;;;;5011701;28;20266;-87
2023/11/30 07:53:18;;;;;;;23.27;13.70;;;3.30;1.00;;;;;;5012319;28;20183;-87
2023/11/30 07:55:46;;;;;;;21.45;14.45;;;3.30;1.00;;;;;;5003264;28;20191;-87
2023/11/30 07:58:15;;;;;;;20.02;12.77;;;3.30;1.00;;;;;;5011428;28;20198;-88
2023/11/30 08:00:41;;;;;;;27.40;14.55;;;3.30;1.00;;;;;;5011503;28;20187;-87
2023/11/30 08:03:17;;;;;;;20.50;14.60;;;3.30;1.00;;;;;;5012008;28;20626;-88
2023/11/30 08:05:45;;;;;;;23.30;13.50;;;3.30;1.00;;;;;;5012167;28;20187;-87
2023/11/30 08:08:14;;;;;;;18.50;13.55;;;3.30;1.00;;;;;;5012498;28;20208;-87
2023/11/30 08:10:43;;;;;;;21.52;15.20;;;3.30;1.00;;;;;;5015569;28;20209;-87
2023/11/30 08:13:10;;;;;;;21.05;13.68;;;3.50;1.00;;;;;;5014015;28;20230;-88
2023/11/30 08:15:36;;;;;;;26.83;14.55;;;3.50;1.00;;;;;;5011798;28;20187;-88
2023/11/30 08:18:02;;;;;;;23.90;14.73;;;3.60;99.90;;;;;;5009856;28;20297;-88
2023/11/30 08:20:32;;;;;;;23.42;15.30;;;3.60;99.90;;;;;;5004519;28;20298;-88
2023/11/30 08:22:57;;;;;;;19.97;14.30;;;3.60;99.90;;;;;;5012225;28;20294;-88
2023/11/30 08:25:23;;;;;;;21.67;14.20;;;3.70;99.90;;;;;;5013011;28;20179;-88
2023/11/30 08:27:51;;;;;;;22.40;13.73;;;3.80;99.90;;;;;;5005740;28;20200;-89
2023/11/30 08:30:17;;;;;;;20.90;13.80;;;3.90;99.90;;;;;;5031129;28;20286;-89
2023/11/30 08:32:46;;;;;;;25.67;15.20;;;4.10;99.90;;;;;;5011195;28;20274;-89
2023/11/30 08:35:14;;;;;;;25.48;14.02;;;4.20;99.90;;;;;;5012298;28;20183;-90
2023/11/30 08:37:40;;;;;;;22.88;14.10;;;4.40;99.90;;;;;;5013253;28;20210;-88
2023/11/30 08:40:07;;;;;;;18.73;13.27;;;4.50;99.90;;;;;;5010822;28;20275;-89
2023/11/30 08:42:39;;;;;;;23.20;13.02;;;4.60;72.60;;;;;;5003811;28;20215;-88
2023/11/30 08:45:05;;;;;;;19.67;13.20;;;4.70;1.00;;;;;;5012703;28;20190;-88
2023/11/30 08:47:31;;;;;;;20.63;12.68;;;4.70;99.90;;;;;;5012560;28;20684;-89
2023/11/30 08:49:56;;;;;;;17.70;12.87;;;4.80;99.90;;;;;;5012680;28;20270;-88
2023/11/30 08:52:25;;;;;;;22.70;14.43;;;4.80;99.90;;;;;;5026303;28;20201;-89
2023/11/30 08:54:51;;;;;;;24.73;16.25;;;4.80;99.90;;;;;;5023195;28;20186;-89
2023/11/30 08:57:18;;;;;;;21.33;14.15;;;4.90;1.00;;;;;;5008890;28;20199;-88
2023/11/30 08:59:45;;;;;;;20.17;13.13;;;5.00;99.90;;;;;;5020627;28;20195;-90
2023/11/30 09:02:11;;;;;;;20.17;13.70;;;5.10;42.10;;;;;;5015129;28;20229;-90
2023/11/30 09:04:37;;;;;;;22.90;13.73;;;5.10;1.00;;;;;;5012468;28;20271;-88
2023/11/30 09:07:03;;;;;;;20.33;13.57;;;5.10;1.00;;;;;;5020223;28;20206;-89
2023/11/30 09:09:28;;;;;;;22.13;14.17;;;5.10;1.00;;;;;;5013966;28;20613;-89
2023/11/30 09:11:54;;;;;;;21.03;13.00;;;5.00;99.90;;;;;;5015427;28;20218;-87
2023/11/30 09:14:20;;;;;;;21.07;14.23;;;5.10;1.00;;;;;;5019077;28;20187;-89
2023/11/30 09:16:48;;;;;;;25.80;14.33;;;5.10;99.90;;;;;;5015992;28;20207;-89
2023/11/30 09:19:14;;;;;;;21.02;13.52;;;5.10;1.00;;;;;;5034348;28;20221;-90
2023/11/30 09:21:39;;;;;;;19.73;12.77;;;5.20;1.00;;;;;;5017949;28;20195;-88
2023/11/30 09:24:07;;;;;;;16.77;12.47;;;5.40;51.50;;;;;;5014547;28;20203;-88
2023/11/30 09:26:40;;;;;;;22.88;13.07;;;5.50;99.90;;;;;;5027547;28;20563;-89
2023/11/30 09:29:06;;;;;;;26.00;13.15;;;5.90;99.90;;;;;;5015379;28;20187;-89
2023/11/30 09:31:32;;;;;;;41.53;15.50;;;6.30;1.00;;;;;;5012729;28;20202;-87
2023/11/30 09:33:57;;;;;;;33.00;14.30;;;6.60;99.90;;;;;;5013648;28;20187;-89
2023/11/30 09:36:23;;;;;;;26.93;13.83;;;6.90;1.00;;;;;;5011775;28;20213;-89
2023/11/30 09:38:50;;;;;;;31.00;13.80;;;7.20;1.00;;;;;;5005554;28;20203;-87
2023/11/30 09:41:21;;;;;;;25.17;12.83;;;7.60;99.90;;;;;;5014078;28;20277;-87
2023/11/30 09:43:52;;;;;;;25.70;13.47;;;7.80;99.90;;;;;;5008077;28;20497;-88
2023/11/30 09:46:23;;;;;;;29.27;14.43;;;7.80;1.00;;;;;;5012450;28;20469;-88
2023/11/30 09:48:50;;;;;;;35.23;14.53;;;7.50;99.90;;;;;;5019407;28;20457;-89
2023/11/30 09:51:28;;;;;;;26.58;14.68;;;7.40;99.90;;;;;;5010946;28;20445;-88
2023/11/30 09:53:57;;;;;;;31.13;14.47;;;7.00;99.90;;;;;;5014538;28;20183;-87
2023/11/30 09:56:30;;;;;;;25.95;14.75;;;6.60;1.00;;;;;;5012380;28;20990;-88
2023/11/30 09:58:56;;;;;;;22.25;14.70;;;6.30;99.90;;;;;;5010216;28;20218;-87
2023/11/30 10:01:25;;;;;;;34.60;14.60;;;5.90;1.00;;;;;;5004808;28;20772;-87
2023/11/30 10:03:51;;;;;;;23.83;13.75;;;5.80;99.90;;;;;;5012956;28;20199;-87
2023/11/30 10:06:17;;;;;;;19.98;14.65;;;5.70;1.00;;;;;;5012265;28;20183;-88
2023/11/30 10:08:45;;;;;;;27.73;15.20;;;5.40;99.90;;;;;;5005594;28;20212;-88
2023/11/30 10:11:19;;;;;;;36.50;16.60;;;5.40;1.00;;;;;;5013728;28;20187;-89
2023/11/30 10:13:48;;;;;;;25.98;15.40;;;5.40;99.90;;;;;;5005194;28;20192;-88
2023/11/30 10:16:13;;;;;;;29.50;15.45;;;5.40;1.00;;;;;;5007945;28;20186;-87
2023/11/30 10:18:39;;;;;;;26.53;15.00;;;5.30;1.00;;;;;;5007201;28;20864;-87
2023/11/30 10:21:07;;;;;;;26.27;15.27;;;5.40;1.00;;;;;;5014852;28;20183;-88
2023/11/30 10:23:57;;;;;;;29.70;16.77;;;5.40;1.00;;;;;;5015197;28;20216;-87
2023/11/30 10:26:29;;;;;;;27.73;15.52;;;5.60;29.40;;;;;;5008565;28;20185;-89
2023/11/30 10:28:56;;;;;;;22.63;13.93;;;5.70;1.00;;;;;;5014941;28;20195;-88
2023/11/30 10:31:22;;;;;;;30.58;15.23;;;5.80;1.00;;;;;;5010596;28;20183;-88
2023/11/30 10:34:01;;;;;;;24.10;15.88;;;5.80;1.00;;;;;;5000962;28;20195;-88
2023/11/30 10:36:31;;;;;;;26.50;16.00;;;5.80;99.90;;;;;;5002345;28;20194;-90
2023/11/30 10:39:14;;;;;;;26.17;15.10;;;5.90;99.90;;;;;;5009218;28;20207;-89
2023/11/30 10:41:52;;;;;;;27.52;15.20;;;6.00;1.00;;;;;;5008142;28;20210;-89
2023/11/30 10:44:31;;;;;;;25.55;14.50;;;6.20;1.00;;;;;;5009104;28;20254;-90
2023/11/30 10:46:58;;;;;;;25.15;14.63;;;6.30;21.10;;;;;;5007703;28;20207;-89
2023/11/30 10:49:26;;;;;;;26.17;16.38;;;6.30;1.00;;;;;;5010138;28;20187;-89
2023/11/30 10:51:54;;;;;;;28.92;15.85;;;6.50;1.00;;;;;;5016600;28;20284;-88
2023/11/30 10:54:49;;;;;;;27.90;15.63;;;6.80;1.00;;;;;;5019001;28;20202;-87
2023/11/30 10:57:16;;;;;;;22.83;15.38;;;7.10;99.90;;;;;;5012465;28;20238;-88
2023/11/30 10:59:44;;;;;;;20.35;14.15;;;7.30;1.00;;;;;;5007994;28;20187;-88
2023/11/30 11:02:11;;;;;;;25.77;15.73;;;7.50;99.90;;;;;;5014670;28;20195;-89
2023/11/30 11:04:43;;;;;;;23.77;15.67;;;7.70;1.00;;;;;;5010522;28;20442;-88
2023/11/30 11:07:14;;;;;;;21.93;13.67;;;7.90;1.00;;;;;;5013449;28;20458;-89
2023/11/30 11:09:54;;;;;;;19.77;14.57;;;8.00;1.00;;;;;;5007130;28;20508;-88
2023/11/30 11:12:24;;;;;;;20.83;14.20;;;8.00;99.90;;;;;;5016761;28;20433;-89
2023/11/30 11:15:03;;;;;;;23.07;14.23;;;7.90;99.90;;;;;;5011945;28;20478;-89
2023/11/30 11:17:32;;;;;;;20.53;13.73;;;8.00;99.90;;;;;;5002152;28;20484;-88
2023/11/30 11:20:00;;;;;;;26.10;14.43;;;8.20;99.90;;;;;;5009167;28;20433;-88
2023/11/30 11:22:30;;;;;;;23.27;14.53;;;8.30;99.90;;;;;;5005569;28;20557;-90
2023/11/30 11:24:57;;;;;;;27.00;15.67;;;8.30;99.90;;;;;;5013378;28;20533;-88
2023/11/30 11:27:30;;;;;;;20.30;14.63;;;8.60;99.90;;;;;;5010416;28;20462;-88
2023/11/30 11:30:06;;;;;;;19.00;12.83;;;9.00;99.90;;;;;;5015067;28;20426;-90
2023/11/30 11:32:34;;;;;;;24.33;13.13;;;9.20;24.80;;;;;;5008056;28;20478;-90
2023/11/30 11:35:00;;;;;;;18.23;13.17;;;9.40;1.00;;;;;;5005917;28;20435;-89
2023/11/30 11:37:25;;;;;;;20.60;13.10;;;9.60;1.00;;;;;;5010162;28;20537;-89
2023/11/30 11:39:51;;;;;;;23.87;12.50;;;10.40;1.00;;;;;;5013777;28;20529;-89
2023/11/30 11:42:19;;;;;;;15.50;12.20;;;10.80;1.00;;;;;;5007416;28;20211;-89
2023/11/30 11:44:48;;;;;;;15.77;11.47;;;10.70;1.00;;;;;;5006638;28;20563;-89
2023/11/30 11:47:14;;;;;;;18.63;11.50;;;10.60;1.00;;;;;;5006218;28;20819;-89
2023/11/30 11:49:40;;;;;;;18.83;11.43;;;10.50;1.00;;;;;;5010853;28;20476;-91
2023/11/30 11:52:11;;;;;;;15.87;12.27;;;10.50;1.00;;;;;;5012918;28;20190;-89
2023/11/30 11:54:36;;;;;;;17.80;11.97;;;10.40;1.00;;;;;;5010896;28;20932;-89
2023/11/30 11:57:04;;;;;;;20.40;11.93;;;10.10;1.00;;;;;;5009354;28;20461;-90
2023/11/30 11:59:30;;;;;;;21.37;12.47;;;10.00;1.00;;;;;;5002278;28;20563;-91
2023/11/30 12:01:57;;;;;;;18.83;11.03;;;10.10;1.00;;;;;;5009649;28;20485;-90
2023/11/30 12:04:33;;;;;;;19.93;12.30;;;10.10;1.00;;;;;;5013830;28;20214;-89
2023/11/30 12:07:11;;;;;;;21.90;14.37;;;10.10;1.00;;;;;;5010365;28;20454;-89
2023/11/30 12:09:37;;;;;;;19.57;12.90;;;10.10;1.00;;;;;;5008707;28;20461;-88
2023/11/30 12:12:06;;;;;;;23.67;12.17;;;10.10;1.00;;;;;;5006263;28;20474;-89
2023/11/30 12:14:31;;;;;;;17.60;12.57;;;10.10;1.00;;;;;;5016237;28;20473;-88
2023/11/30 12:17:01;;;;;;;18.93;13.20;;;10.00;1.00;;;;;;5009151;28;20509;-90
2023/11/30 12:19:27;;;;;;;19.90;13.07;;;9.90;1.00;;;;;;5009051;28;20183;-90
2023/11/30 12:21:54;;;;;;;27.77;14.40;;;9.90;1.00;;;;;;5002963;28;20434;-89
2023/11/30 12:24:21;;;;;;;15.67;10.20;;;10.00;1.00;;;;;;5006638;28;20493;-87
2023/11/30 12:26:46;;;;;;;18.20;11.00;;;10.10;1.00;;;;;;5007008;28;20437;-88
2023/11/30 12:29:12;;;;;;;19.70;10.97;;;10.00;1.00;;;;;;5012658;28;20505;-87
2023/11/30 12:31:38;;;;;;;22.20;13.40;;;10.00;1.00;;;;;;5011540;28;20445;-87
2023/11/30 12:34:04;;;;;;;23.93;14.40;;;10.00;1.00;;;;;;5012885;28;20442;-87
2023/11/30 12:36:30;;;;;;;26.47;14.83;;;9.90;1.00;;;;;;5011140;28;20272;-87
2023/11/30 12:38:55;;;;;;;24.63;14.53;;;9.90;1.00;;;;;;5010182;28;20461;-84
2023/11/30 12:41:21;;;;;;;23.23;17.30;;;9.70;1.00;;;;;;5011716;28;20191;-87
2023/11/30 12:43:47;;;;;;;25.17;16.27;;;9.60;1.00;;;;;;5002093;28;20763;-87